Time;durP1;ratioP1;P1;durP2;ratioP2;P2;SDS_P1;SDS_P2;PMS_P1;PMS_P2;Temp;Humidity;BMP_temperature;BMP_pressure;BME280_temperature;BME280_humidity;BME280_pressure;Samples;Min_cycle;Max_cycle;Signal;HPM_P1;HPM_P2
2023/01/06 00:02:05;;;;;;;11.93;2.75;;;;;;;;;;4997454;28;88470;-68
2023/01/06 00:07:12;;;;;;;11.25;2.80;;;;;;;;;;4949955;22;90183;-88
2023/01/06 00:09:38;;;;;;;8.00;2.53;;;;;;;;;;4957264;28;92209;-88
2023/01/06 00:12:06;;;;;;;8.35;2.05;;;;;;;;;;4956544;28;90568;-87
2023/01/06 00:14:32;;;;;;;8.52;2.40;;;;;;;;;;4955692;28;90040;-88
2023/01/06 00:16:59;;;;;;;8.43;2.55;;;;;;;;;;4956471;28;88652;-88
2023/01/06 00:19:25;;;;;;;9.80;2.28;;;;;;;;;;4958122;28;89246;-88
2023/01/06 00:21:51;;;;;;;5.70;2.15;;;;;;;;;;4957269;28;89640;-87
2023/01/06 00:24:18;;;;;;;7.22;2.60;;;;;;;;;;4956971;28;88629;-88
2023/01/06 00:26:44;;;;;;;7.88;2.80;;;;;;;;;;4960753;28;89287;-88
2023/01/06 00:29:11;;;;;;;11.35;3.38;;;;;;;;;;4955785;28;88915;-87
2023/01/06 00:31:37;;;;;;;14.68;3.28;;;;;;;;;;4956823;28;90002;-88
2023/01/06 00:34:03;;;;;;;12.32;3.63;;;;;;;;;;4956443;28;90614;-88
2023/01/06 00:36:30;;;;;;;8.85;3.80;;;;;;;;;;4956935;28;88444;-88
2023/01/06 00:38:56;;;;;;;12.05;3.75;;;;;;;;;;4956936;28;90307;-87
2023/01/06 00:44:08;;;;;;;8.70;3.85;;;;;;;;;;4956845;28;88126;-88
2023/01/06 00:46:34;;;;;;;12.23;4.30;;;;;;;;;;4952878;28;89795;-88
2023/01/06 00:49:01;;;;;;;11.52;3.90;;;;;;;;;;4950291;28;93042;-88
2023/01/06 00:51:33;;;;;;;15.88;4.30;;;;;;;;;;4951434;28;89730;-90
2023/01/06 00:54:00;;;;;;;16.40;4.35;;;;;;;;;;4956633;28;92962;-88
2023/01/06 00:56:26;;;;;;;7.78;3.63;;;;;;;;;;4956114;28;92287;-88
2023/01/06 00:58:52;;;;;;;10.45;4.72;;;;;;;;;;4956027;28;92950;-88
2023/01/06 01:01:19;;;;;;;14.15;4.50;;;;;;;;;;4956933;28;89226;-87
2023/01/06 01:03:45;;;;;;;16.42;4.38;;;;;;;;;;4944609;28;89225;-88
2023/01/06 01:06:12;;;;;;;14.98;4.38;;;;;;;;;;4949355;28;92378;-88
2023/01/06 01:08:38;;;;;;;14.95;3.63;;;;;;;;;;4940280;28;91230;-88
2023/01/06 01:11:06;;;;;;;11.38;3.33;;;;;;;;;;4940733;28;88708;-87
2023/01/06 01:13:32;;;;;;;8.63;3.25;;;;;;;;;;4936950;28;92415;-87
2023/01/06 01:16:02;;;;;;;8.45;3.28;;;;;;;;;;4938804;28;89070;-87
2023/01/06 01:18:29;;;;;;;;;;;;;;;;;;4936897;28;89308;-88
2023/01/06 01:20:55;;;;;;;7.65;2.78;;;;;;;;;;4938014;28;118450;-88
2023/01/06 01:23:22;;;;;;;10.98;2.92;;;;;;;;;;4935714;28;88994;-88
2023/01/06 01:25:48;;;;;;;10.60;2.92;;;;;;;;;;4936315;28;90698;-88
2023/01/06 01:28:14;;;;;;;11.43;3.60;;;;;;;;;;4918668;28;92308;-90
2023/01/06 01:30:41;;;;;;;7.38;2.80;;;;;;;;;;4934343;28;88551;-88
2023/01/06 01:33:07;;;;;;;7.00;2.90;;;;;;;;;;4938555;28;89987;-87
2023/01/06 01:35:33;;;;;;;10.30;3.40;;;;;;;;;;4931863;28;91996;-87
2023/01/06 01:38:00;;;;;;;8.25;2.70;;;;;;;;;;4922178;28;89760;-87
2023/01/06 01:40:26;;;;;;;6.57;2.65;;;;;;;;;;4929958;28;89318;-88
2023/01/06 01:42:52;;;;;;;9.38;2.38;;;;;;;;;;4946749;28;89965;-88
2023/01/06 01:45:28;;;;;;;6.97;2.17;;;;;;;;;;4936096;28;89820;-88
2023/01/06 01:47:59;;;;;;;9.02;3.03;;;;;;;;;;4935513;28;90723;-88
2023/01/06 01:50:28;;;;;;;5.93;2.38;;;;;;;;;;4933405;28;89487;-88
2023/01/06 01:53:01;;;;;;;16.33;2.72;;;;;;;;;;4935703;28;89569;-88
2023/01/06 01:55:28;;;;;;;10.32;2.15;;;;;;;;;;4938690;28;89864;-88
2023/01/06 01:58:07;;;;;;;9.13;2.67;;;;;;;;;;4936207;28;89820;-88
2023/01/06 02:00:34;;;;;;;11.70;3.10;;;;;;;;;;4937803;28;89704;-88
2023/01/06 02:03:01;;;;;;;7.53;1.95;;;;;;;;;;4932678;28;88946;-88
2023/01/06 02:05:28;;;;;;;8.68;2.03;;;;;;;;;;4922058;28;92804;-88
2023/01/06 02:07:56;;;;;;;9.20;1.98;;;;;;;;;;4940069;28;89571;-88
2023/01/06 02:10:23;;;;;;;7.55;2.63;;;;;;;;;;4939538;28;91847;-88
2023/01/06 02:12:51;;;;;;;4.40;2.35;;;;;;;;;;4940336;28;90014;-88
2023/01/06 02:15:25;;;;;;;6.20;2.40;;;;;;;;;;4939354;28;89963;-87
2023/01/06 02:17:54;;;;;;;3.50;2.50;;;;;;;;;;4943680;28;91433;-87
2023/01/06 02:20:21;;;;;;;9.80;3.38;;;;;;;;;;4939891;28;90552;-88
2023/01/06 02:23:10;;;;;;;10.55;3.28;;;;;;;;;;4939193;28;91396;-88
2023/01/06 02:25:42;;;;;;;14.82;3.30;;;;;;;;;;4938173;28;93535;-88
2023/01/06 02:28:27;;;;;;;4.75;2.85;;;;;;;;;;4934860;28;89521;-88
2023/01/06 02:30:54;;;;;;;8.05;2.95;;;;;;;;;;4940188;28;89042;-88
2023/01/06 02:33:29;;;;;;;6.88;2.85;;;;;;;;;;4940338;28;88628;-87
2023/01/06 02:36:09;;;;;;;8.27;3.13;;;;;;;;;;4939330;28;89904;-87
2023/01/06 02:38:43;;;;;;;8.60;3.10;;;;;;;;;;4941627;28;92392;-87
2023/01/06 02:41:14;;;;;;;10.07;3.28;;;;;;;;;;4940408;28;90342;-88
2023/01/06 02:44:01;;;;;;;10.02;3.83;;;;;;;;;;4939109;28;89827;-88
2023/01/06 02:46:57;;;;;;;10.65;3.83;;;;;;;;;;4938899;28;92484;-88
2023/01/06 02:49:29;;;;;;;6.50;3.28;;;;;;;;;;4934090;28;89935;-88
2023/01/06 02:52:16;;;;;;;8.38;3.88;;;;;;;;;;4940156;28;89188;-88
2023/01/06 02:54:57;;;;;;;10.75;3.58;;;;;;;;;;4934715;28;89880;-87
2023/01/06 02:57:32;;;;;;;10.15;3.22;;;;;;;;;;4936334;28;89941;-88
2023/01/06 02:59:58;;;;;;;8.43;3.35;;;;;;;;;;4927164;28;89332;-88
2023/01/06 03:02:26;;;;;;;12.85;3.28;;;;;;;;;;4940032;28;89820;-88
2023/01/06 03:04:54;;;;;;;5.88;3.08;;;;;;;;;;4938085;28;89148;-88
2023/01/06 03:07:21;;;;;;;11.30;3.45;;;;;;;;;;4937708;28;89741;-88
2023/01/06 03:09:49;;;;;;;10.40;3.40;;;;;;;;;;4937661;28;90461;-88
2023/01/06 03:12:24;;;;;;;5.65;3.22;;;;;;;;;;4936670;28;89477;-88
2023/01/06 03:14:51;;;;;;;5.40;2.92;;;;;;;;;;4938859;28;89790;-88
2023/01/06 03:17:18;;;;;;;4.57;2.80;;;;;;;;;;4937369;28;89794;-88
2023/01/06 03:19:44;;;;;;;5.18;2.88;;;;;;;;;;4955004;28;88978;-88
2023/01/06 03:22:11;;;;;;;9.55;2.50;;;;;;;;;;4943655;28;91095;-88
2023/01/06 03:24:38;;;;;;;9.70;2.70;;;;;;;;;;4941526;28;93172;-87
2023/01/06 03:27:04;;;;;;;5.75;2.38;;;;;;;;;;4937330;28;89734;-88
2023/01/06 03:29:31;;;;;;;10.57;2.58;;;;;;;;;;4938789;28;90530;-88
2023/01/06 03:32:03;;;;;;;5.75;2.42;;;;;;;;;;4940044;28;89325;-89
2023/01/06 03:34:47;;;;;;;6.13;2.40;;;;;;;;;;4938969;28;92694;-88
2023/01/06 03:37:22;;;;;;;8.10;2.58;;;;;;;;;;4939553;28;92163;-88
2023/01/06 03:39:51;;;;;;;7.72;2.38;;;;;;;;;;4938623;28;88763;-87
2023/01/06 03:45:34;;;;;;;5.72;2.22;;;;;;;;;;4923538;28;89896;-88
2023/01/06 03:48:06;;;;;;;7.78;2.53;;;;;;;;;;4941852;28;88335;-88
2023/01/06 03:50:45;;;;;;;10.75;2.40;;;;;;;;;;4938160;28;89248;-88
2023/01/06 03:53:30;;;;;;;6.45;2.08;;;;;;;;;;4938442;28;88882;-88
2023/01/06 03:56:00;;;;;;;9.60;2.35;;;;;;;;;;4945736;28;89979;-88
2023/01/06 03:58:26;;;;;;;10.50;1.90;;;;;;;;;;4941293;28;90496;-88
2023/01/06 04:00:53;;;;;;;9.60;2.45;;;;;;;;;;4942903;28;92047;-87
2023/01/06 04:03:22;;;;;;;8.38;2.33;;;;;;;;;;4927079;28;90194;-88
2023/01/06 04:05:49;;;;;;;5.32;2.10;;;;;;;;;;4928980;28;89334;-88
2023/01/06 04:08:15;;;;;;;5.40;2.00;;;;;;;;;;4937926;28;88639;-88
2023/01/06 04:10:41;;;;;;;5.75;1.58;;;;;;;;;;4940740;28;89768;-88
2023/01/06 04:13:07;;;;;;;4.45;1.92;;;;;;;;;;4938247;28;89324;-87
2023/01/06 04:15:34;;;;;;;4.38;1.75;;;;;;;;;;4937444;28;91880;-88
2023/01/06 04:18:00;;;;;;;5.53;1.83;;;;;;;;;;4936586;28;89819;-87
2023/01/06 04:20:28;;;;;;;7.10;2.58;;;;;;;;;;4936297;28;89040;-87
2023/01/06 04:22:55;;;;;;;9.23;2.08;;;;;;;;;;4940898;28;92060;-87
2023/01/06 04:25:22;;;;;;;8.77;1.98;;;;;;;;;;4934335;28;90177;-88
2023/01/06 04:27:48;;;;;;;3.38;1.92;;;;;;;;;;4936717;28;91838;-88
2023/01/06 04:30:15;;;;;;;7.53;1.67;;;;;;;;;;4934395;28;89821;-88
2023/01/06 04:32:41;;;;;;;5.53;1.50;;;;;;;;;;4940300;28;90065;-88
2023/01/06 04:35:08;;;;;;;5.10;1.85;;;;;;;;;;4936664;28;89112;-88
2023/01/06 04:37:34;;;;;;;6.03;1.35;;;;;;;;;;4936043;28;89288;-87
2023/01/06 04:40:00;;;;;;;6.18;1.90;;;;;;;;;;4937859;28;88975;-88
2023/01/06 04:42:27;;;;;;;6.47;2.03;;;;;;;;;;4935134;28;91274;-87
2023/01/06 04:44:53;;;;;;;3.92;1.83;;;;;;;;;;4936953;28;90671;-88
2023/01/06 04:47:19;;;;;;;3.85;1.55;;;;;;;;;;4936878;28;89144;-88
2023/01/06 04:49:46;;;;;;;7.70;1.88;;;;;;;;;;4936923;28;93021;-88
2023/01/06 04:52:12;;;;;;;4.03;1.70;;;;;;;;;;4938552;28;93012;-87
2023/01/06 04:54:38;;;;;;;4.03;1.70;;;;;;;;;;4934719;28;90357;-87
2023/01/06 04:57:05;;;;;;;2.63;1.42;;;;;;;;;;4935677;28;93221;-87
2023/01/06 04:59:31;;;;;;;5.78;1.58;;;;;;;;;;4936454;28;88590;-88
2023/01/06 05:01:57;;;;;;;5.78;1.58;;;;;;;;;;4926344;28;92180;-87
2023/01/06 05:04:24;;;;;;;5.93;1.83;;;;;;;;;;4935994;28;90306;-87
2023/01/06 05:06:50;;;;;;;8.45;1.67;;;;;;;;;;4936084;28;88671;-87
2023/01/06 05:09:16;;;;;;;2.97;1.63;;;;;;;;;;4929658;28;93027;-88
2023/01/06 05:11:43;;;;;;;3.22;1.73;;;;;;;;;;4935533;28;92430;-87
2023/01/06 05:14:09;;;;;;;3.55;1.80;;;;;;;;;;4941029;28;88490;-87
2023/01/06 05:16:37;;;;;;;7.60;2.08;;;;;;;;;;4937637;28;89983;-88
2023/01/06 05:19:03;;;;;;;4.97;1.75;;;;;;;;;;4937020;28;88628;-88
2023/01/06 05:21:29;;;;;;;5.60;1.80;;;;;;;;;;4936725;28;89398;-87
2023/01/06 05:23:58;;;;;;;6.90;2.10;;;;;;;;;;4935773;28;92649;-87
2023/01/06 05:26:25;;;;;;;7.97;2.28;;;;;;;;;;4938350;28;91319;-87
2023/01/06 05:28:52;;;;;;;5.25;1.65;;;;;;;;;;4923255;28;89819;-87
2023/01/06 05:31:18;;;;;;;4.97;1.75;;;;;;;;;;4934998;28;89648;-87
2023/01/06 05:33:44;;;;;;;7.20;1.90;;;;;;;;;;4919846;28;91732;-87
2023/01/06 05:36:12;;;;;;;6.55;2.08;;;;;;;;;;4940322;28;90651;-88
2023/01/06 05:38:38;;;;;;;5.60;1.77;;;;;;;;;;4941228;28;92222;-88
2023/01/06 05:41:05;;;;;;;5.50;1.75;;;;;;;;;;4939143;28;91844;-88
2023/01/06 05:43:32;;;;;;;5.43;1.73;;;;;;;;;;4938909;28;89763;-87
2023/01/06 05:45:59;;;;;;;6.53;1.88;;;;;;;;;;4938999;28;91578;-89
2023/01/06 05:48:26;;;;;;;2.50;1.60;;;;;;;;;;4940732;28;90022;-90
2023/01/06 05:50:59;;;;;;;12.45;2.10;;;;;;;;;;4939543;28;89201;-89
2023/01/06 05:53:25;;;;;;;3.25;1.45;;;;;;;;;;4939923;28;88152;-90
2023/01/06 05:55:51;;;;;;;2.67;1.63;;;;;;;;;;4938721;28;90844;-89
2023/01/06 05:58:18;;;;;;;7.50;2.00;;;;;;;;;;4942670;28;90429;-89
2023/01/06 06:00:44;;;;;;;6.85;1.58;;;;;;;;;;4939593;28;93391;-89
2023/01/06 06:03:10;;;;;;;10.27;2.08;;;;;;;;;;4940070;28;89623;-88
2023/01/06 06:05:37;;;;;;;11.18;2.03;;;;;;;;;;4939193;28;88026;-88
2023/01/06 06:08:03;;;;;;;9.00;1.60;;;;;;;;;;4938165;28;92082;-89
2023/01/06 06:10:29;;;;;;;6.82;1.40;;;;;;;;;;4936468;28;89741;-88
2023/01/06 06:12:56;;;;;;;6.10;1.95;;;;;;;;;;4938253;28;88984;-88
2023/01/06 06:15:22;;;;;;;5.22;2.00;;;;;;;;;;4939944;28;89354;-89
2023/01/06 06:17:48;;;;;;;3.90;2.42;;;;;;;;;;4939973;28;90470;-89
2023/01/06 06:20:15;;;;;;;4.30;1.40;;;;;;;;;;4943421;28;88459;-87
2023/01/06 06:22:41;;;;;;;4.72;1.67;;;;;;;;;;4938795;28;90478;-89
2023/01/06 06:25:07;;;;;;;4.30;1.75;;;;;;;;;;4939754;28;88582;-88
2023/01/06 06:27:34;;;;;;;4.22;1.42;;;;;;;;;;4936875;28;89896;-88
2023/01/06 06:30:00;;;;;;;6.07;1.88;;;;;;;;;;4930609;28;92661;-89
2023/01/06 06:32:28;;;;;;;6.35;1.52;;;;;;;;;;4943443;28;88849;-89
2023/01/06 06:34:55;;;;;;;1.75;1.33;;;;;;;;;;4931339;28;91700;-89
2023/01/06 06:37:21;;;;;;;4.53;1.65;;;;;;;;;;4939863;28;92831;-88
2023/01/06 06:39:47;;;;;;;3.38;1.73;;;;;;;;;;4940449;28;88997;-88
2023/01/06 06:42:14;;;;;;;6.97;1.60;;;;;;;;;;4939042;28;89099;-89
2023/01/06 06:44:40;;;;;;;5.22;1.58;;;;;;;;;;4937181;28;89527;-89
2023/01/06 06:47:06;;;;;;;6.15;1.73;;;;;;;;;;4937423;28;92748;-89
2023/01/06 06:49:33;;;;;;;4.20;1.38;;;;;;;;;;4929197;28;89788;-89
2023/01/06 06:51:59;;;;;;;6.53;1.90;;;;;;;;;;4938228;28;88164;-89
2023/01/06 06:54:25;;;;;;;3.53;2.15;;;;;;;;;;4939278;28;89791;-89
2023/01/06 06:56:52;;;;;;;5.00;1.90;;;;;;;;;;4937161;28;93012;-88
2023/01/06 06:59:18;;;;;;;5.55;1.88;;;;;;;;;;4938431;28;88999;-89
2023/01/06 07:01:44;;;;;;;6.43;2.00;;;;;;;;;;4942738;28;89444;-89
2023/01/06 07:04:11;;;;;;;6.90;2.13;;;;;;;;;;4938670;28;90402;-88
2023/01/06 07:06:37;;;;;;;3.33;1.90;;;;;;;;;;4936897;28;91748;-89
2023/01/06 07:09:04;;;;;;;5.88;2.40;;;;;;;;;;4936514;28;92796;-89
2023/01/06 07:11:30;;;;;;;3.22;2.58;;;;;;;;;;4919379;28;88932;-88
2023/01/06 07:13:57;;;;;;;3.47;2.28;;;;;;;;;;4934843;28;90819;-88
2023/01/06 07:16:25;;;;;;;7.57;2.75;;;;;;;;;;4947260;28;89817;-89
2023/01/06 07:18:52;;;;;;;5.22;2.70;;;;;;;;;;4927677;28;91886;-89
2023/01/06 07:21:18;;;;;;;3.20;2.90;;;;;;;;;;4938759;28;91070;-88
2023/01/06 07:23:44;;;;;;;3.28;2.97;;;;;;;;;;4943944;28;88906;-89
2023/01/06 07:26:11;;;;;;;5.18;3.10;;;;;;;;;;4935035;28;92150;-88
2023/01/06 07:28:37;;;;;;;6.72;3.10;;;;;;;;;;4938270;28;89317;-88
2023/01/06 07:31:04;;;;;;;7.32;2.80;;;;;;;;;;4937446;28;89197;-89
2023/01/06 07:33:30;;;;;;;3.35;1.90;;;;;;;;;;4936724;28;90383;-88
2023/01/06 07:35:56;;;;;;;1.70;1.60;;;;;;;;;;4935536;28;90724;-89
2023/01/06 07:38:23;;;;;;;2.20;2.00;;;;;;;;;;4937561;28;88580;-89
2023/01/06 07:40:49;;;;;;;7.63;2.50;;;;;;;;;;4935379;28;93248;-89
2023/01/06 07:43:16;;;;;;;3.13;2.92;;;;;;;;;;4934498;28;89645;-89
2023/01/06 07:45:44;;;;;;;4.72;2.75;;;;;;;;;;4938125;28;92230;-89
2023/01/06 07:48:11;;;;;;;3.67;2.92;;;;;;;;;;4937082;28;89974;-88
2023/01/06 07:50:37;;;;;;;3.03;2.80;;;;;;;;;;4938099;28;88754;-90
2023/01/06 07:53:03;;;;;;;2.45;2.25;;;;;;;;;;4937672;28;89277;-89
2023/01/06 07:55:30;;;;;;;3.17;2.45;;;;;;;;;;4937110;28;89083;-88
2023/01/06 07:57:57;;;;;;;5.30;2.90;;;;;;;;;;4956825;28;91210;-88
2023/01/06 08:00:24;;;;;;;2.75;2.50;;;;;;;;;;4957619;28;90269;-90
2023/01/06 08:02:50;;;;;;;3.47;2.80;;;;;;;;;;4938630;28;92378;-91
2023/01/06 08:05:17;;;;;;;4.93;2.90;;;;;;;;;;4936968;28;90631;-92
2023/01/06 08:07:47;;;;;;;8.90;2.90;;;;;;;;;;4938102;28;92906;-92
2023/01/06 08:10:14;;;;;;;;;;;;;;;;;;4932718;28;90983;-92
2023/01/06 08:12:40;;;;;;;3.95;2.38;;;;;;;;;;4938872;28;117373;-90
2023/01/06 08:15:07;;;;;;;5.57;2.70;;;;;;;;;;4933930;28;92427;-92
2023/01/06 08:17:34;;;;;;;5.95;2.45;;;;;;;;;;4938484;28;89685;-90
2023/01/06 08:20:01;;;;;;;8.43;2.63;;;;;;;;;;4939816;28;90914;-89
2023/01/06 08:22:28;;;;;;;7.80;2.53;;;;;;;;;;4937764;28;92252;-92
2023/01/06 08:24:54;;;;;;;5.20;2.47;;;;;;;;;;4934057;28;89008;-93
2023/01/06 08:27:25;;;;;;;7.50;2.20;;;;;;;;;;4931682;28;89010;-94
2023/01/06 08:29:54;;;;;;;6.75;2.45;;;;;;;;;;4942288;28;91941;-94
2023/01/06 08:32:27;;;;;;;8.13;2.58;;;;;;;;;;4935049;28;92917;-94
2023/01/06 08:34:53;;;;;;;7.50;2.38;;;;;;;;;;4937500;28;91613;-93
2023/01/06 08:37:20;;;;;;;5.00;2.20;;;;;;;;;;4932887;28;91102;-92
2023/01/06 08:39:46;;;;;;;12.77;3.20;;;;;;;;;;4937422;28;93101;-93
2023/01/06 08:42:13;;;;;;;14.45;2.80;;;;;;;;;;4937650;28;91035;-91
2023/01/06 08:44:40;;;;;;;12.82;2.92;;;;;;;;;;4928312;28;89607;-90
2023/01/06 08:47:06;;;;;;;5.20;2.33;;;;;;;;;;4936224;28;89498;-93
2023/01/06 08:49:33;;;;;;;8.13;2.00;;;;;;;;;;4935432;28;93161;-92
2023/01/06 08:51:59;;;;;;;9.82;2.92;;;;;;;;;;4939991;28;88594;-91
2023/01/06 08:54:26;;;;;;;13.77;2.90;;;;;;;;;;4943012;28;89057;-89
2023/01/06 08:56:52;;;;;;;9.27;2.25;;;;;;;;;;4936246;28;91897;-87
2023/01/06 08:59:19;;;;;;;8.85;2.45;;;;;;;;;;4935122;28;89541;-87
2023/01/06 09:01:45;;;;;;;11.82;2.50;;;;;;;;;;4935281;28;92824;-87
2023/01/06 09:04:12;;;;;;;17.98;3.25;;;;;;;;;;4931265;28;88961;-88
2023/01/06 09:06:40;;;;;;;17.65;2.80;;;;;;;;;;4933905;28;93499;-87
2023/01/06 09:09:07;;;;;;;9.63;2.15;;;;;;;;;;4938048;28;93551;-87
2023/01/06 09:11:33;;;;;;;11.13;2.30;;;;;;;;;;4939301;28;91534;-87
2023/01/06 09:14:00;;;;;;;18.27;2.88;;;;;;;;;;4936596;28;90795;-87
2023/01/06 09:16:26;;;;;;;8.38;2.40;;;;;;;;;;4933997;28;88985;-86
2023/01/06 09:18:52;;;;;;;22.52;4.05;;;;;;;;;;4939166;28;91086;-85
2023/01/06 09:21:21;;;;;;;17.65;3.45;;;;;;;;;;4936172;28;89653;-88
2023/01/06 09:23:48;;;;;;;13.52;2.45;;;;;;;;;;4933207;28;88518;-88
2023/01/06 09:26:15;;;;;;;17.17;2.90;;;;;;;;;;4937768;28;91051;-88
2023/01/06 09:28:41;;;;;;;14.48;2.30;;;;;;;;;;4934524;28;90168;-88
2023/01/06 09:31:08;;;;;;;15.32;2.80;;;;;;;;;;4936429;28;89949;-88
2023/01/06 09:33:35;;;;;;;13.38;2.50;;;;;;;;;;4940988;28;89443;-88
2023/01/06 09:36:01;;;;;;;14.32;3.45;;;;;;;;;;4936429;28;88887;-88
2023/01/06 09:38:28;;;;;;;18.83;3.38;;;;;;;;;;4935586;28;89953;-88
2023/01/06 09:41:00;;;;;;;15.13;2.33;;;;;;;;;;4936359;28;89423;-87
2023/01/06 09:43:26;;;;;;;20.77;2.92;;;;;;;;;;4936049;28;89274;-91
2023/01/06 09:45:55;;;;;;;12.38;2.08;;;;;;;;;;4935299;28;90451;-88
2023/01/06 09:48:25;;;;;;;21.35;2.50;;;;;;;;;;4937753;28;92303;-88
2023/01/06 09:50:55;;;;;;;14.50;2.30;;;;;;;;;;4936347;28;89266;-89
2023/01/06 09:53:25;;;;;;;12.97;2.17;;;;;;;;;;4935356;28;91183;-90
2023/01/06 09:55:56;;;;;;;19.33;2.72;;;;;;;;;;4940815;28;88898;-88
2023/01/06 09:58:26;;;;;;;12.95;2.55;;;;;;;;;;4936463;28;89285;-89
2023/01/06 10:00:53;;;;;;;14.90;3.33;;;;;;;;;;4936225;28;90239;-89
2023/01/06 10:03:24;;;;;;;15.90;2.30;;;;;;;;;;4935157;28;91677;-88
2023/01/06 10:05:50;;;;;;;;;;;;;;;;;;4931328;28;90400;-88
2023/01/06 10:08:17;;;;;;;14.68;2.55;;;;;;;;;;4935399;28;119568;-88
2023/01/06 10:10:49;;;;;;;15.02;2.67;;;;;;;;;;4934931;28;88069;-88
2023/01/06 10:13:18;;;;;;;17.52;2.15;;;;;;;;;;4935550;28;93260;-88
2023/01/06 10:16:00;;;;;;;14.55;3.15;;;;;;;;;;4935388;28;89928;-88
2023/01/06 10:18:31;;;;;;;14.20;2.47;;;;;;;;;;4948126;28;91084;-87
2023/01/06 10:21:00;;;;;;;13.32;2.13;;;;;;;;;;4922928;28;92601;-91
2023/01/06 10:23:36;;;;;;;7.55;2.03;;;;;;;;;;4937365;28;88506;-92
2023/01/06 10:26:13;;;;;;;9.27;2.05;;;;;;;;;;4938311;28;91695;-90
2023/01/06 10:28:44;;;;;;;12.77;2.83;;;;;;;;;;4938112;28;90584;-91
2023/01/06 10:31:11;;;;;;;10.88;1.88;;;;;;;;;;4939130;28;91910;-92
2023/01/06 10:33:50;;;;;;;11.30;2.25;;;;;;;;;;4940552;28;92207;-92
2023/01/06 10:36:19;;;;;;;11.52;2.67;;;;;;;;;;4953008;28;92643;-91
2023/01/06 10:38:48;;;;;;;14.05;2.58;;;;;;;;;;4939977;28;89929;-91
2023/01/06 10:41:30;;;;;;;9.88;2.88;;;;;;;;;;4941986;28;89798;-90
2023/01/06 10:43:56;;;;;;;10.48;2.38;;;;;;;;;;4955294;28;89473;-90
2023/01/06 10:46:26;;;;;;;10.73;3.17;;;;;;;;;;4937181;28;93118;-90
2023/01/06 10:48:54;;;;;;;6.78;1.85;;;;;;;;;;4936588;28;91799;-92
2023/01/06 10:51:31;;;;;;;5.97;1.50;;;;;;;;;;4935586;28;89007;-91
2023/01/06 10:54:00;;;;;;;11.68;1.95;;;;;;;;;;4939161;28;89168;-92
2023/01/06 10:56:28;;;;;;;11.85;2.15;;;;;;;;;;4955420;28;88499;-91
2023/01/06 10:58:57;;;;;;;8.23;1.65;;;;;;;;;;4939395;28;91852;-92
2023/01/06 11:01:24;;;;;;;8.23;2.17;;;;;;;;;;4941390;28;91898;-91
2023/01/06 11:04:05;;;;;;;9.70;1.85;;;;;;;;;;4959606;28;88571;-91
2023/01/06 11:06:32;;;;;;;11.75;1.92;;;;;;;;;;4935756;28;90794;-91
2023/01/06 11:09:05;;;;;;;7.32;1.50;;;;;;;;;;4953265;28;90558;-91
2023/01/06 11:11:31;;;;;;;10.35;2.10;;;;;;;;;;4940055;28;89026;-91
2023/01/06 11:13:59;;;;;;;5.80;1.83;;;;;;;;;;4935413;28;92391;-91
2023/01/06 11:16:33;;;;;;;6.97;1.52;;;;;;;;;;4938709;28;92676;-91
2023/01/06 11:19:01;;;;;;;10.13;1.45;;;;;;;;;;4920528;28;90775;-89
2023/01/06 11:21:39;;;;;;;6.30;1.33;;;;;;;;;;4952220;28;92505;-91
2023/01/06 11:24:16;;;;;;;9.25;1.80;;;;;;;;;;4940955;28;90798;-88
2023/01/06 11:26:44;;;;;;;11.18;1.90;;;;;;;;;;4937809;28;91477;-88
2023/01/06 11:29:18;;;;;;;7.28;1.70;;;;;;;;;;4939442;28;89887;-88
2023/01/06 11:31:46;;;;;;;8.50;1.80;;;;;;;;;;4939522;28;89680;-87
2023/01/06 11:34:20;;;;;;;7.30;1.42;;;;;;;;;;4938738;28;89754;-88
2023/01/06 11:36:47;;;;;;;7.88;1.42;;;;;;;;;;4939858;28;89198;-88
2023/01/06 11:39:20;;;;;;;9.05;1.73;;;;;;;;;;4936723;28;89759;-88
2023/01/06 11:41:48;;;;;;;10.93;2.05;;;;;;;;;;4934013;28;92866;-88
2023/01/06 11:44:17;;;;;;;7.70;1.65;;;;;;;;;;4939053;28;92907;-91
2023/01/06 11:46:49;;;;;;;5.90;1.63;;;;;;;;;;4941600;28;89289;-89
2023/01/06 11:49:21;;;;;;;12.10;2.03;;;;;;;;;;4940188;28;89566;-89
2023/01/06 11:51:48;;;;;;;8.85;1.88;;;;;;;;;;4938348;28;88944;-92
2023/01/06 11:54:23;;;;;;;3.95;1.55;;;;;;;;;;4938474;28;90734;-89
2023/01/06 11:56:56;;;;;;;10.55;1.88;;;;;;;;;;4934969;28;89801;-92
2023/01/06 11:59:24;;;;;;;5.20;1.67;;;;;;;;;;4938130;28;89210;-88
2023/01/06 12:01:52;;;;;;;10.70;2.33;;;;;;;;;;4938642;28;92626;-87
2023/01/06 12:04:29;;;;;;;5.30;1.25;;;;;;;;;;4938610;28;92799;-89
2023/01/06 12:07:02;;;;;;;14.07;1.83;;;;;;;;;;4937181;28;89254;-87
2023/01/06 12:09:30;;;;;;;11.32;1.80;;;;;;;;;;4938699;28;89571;-87
2023/01/06 12:11:58;;;;;;;7.93;1.52;;;;;;;;;;4937648;28;92076;-84
2023/01/06 12:14:29;;;;;;;6.38;1.90;;;;;;;;;;4938651;28;92562;-87
2023/01/06 12:17:14;;;;;;;9.25;1.60;;;;;;;;;;4937830;28;91853;-88
2023/01/06 12:20:01;;;;;;;9.65;1.50;;;;;;;;;;4951710;28;88957;-88
2023/01/06 12:22:27;;;;;;;6.68;1.52;;;;;;;;;;4928731;28;89966;-87
2023/01/06 12:24:55;;;;;;;7.55;1.67;;;;;;;;;;4938549;28;91861;-89
2023/01/06 12:27:43;;;;;;;12.13;1.75;;;;;;;;;;4936523;28;88915;-86
2023/01/06 12:30:29;;;;;;;7.85;1.55;;;;;;;;;;4934468;28;88902;-90
2023/01/06 12:32:59;;;;;;;7.55;1.80;;;;;;;;;;4939174;28;89942;-89
2023/01/06 12:35:28;;;;;;;12.30;1.70;;;;;;;;;;4936572;28;90015;-87
2023/01/06 12:38:15;;;;;;;5.30;1.42;;;;;;;;;;4937528;28;92856;-87
2023/01/06 12:40:44;;;;;;;4.97;1.70;;;;;;;;;;4936394;28;89373;-87
2023/01/06 12:43:18;;;;;;;7.65;1.38;;;;;;;;;;4936992;28;89902;-87
2023/01/06 12:45:45;;;;;;;5.78;1.55;;;;;;;;;;4933667;28;90497;-87
2023/01/06 12:48:25;;;;;;;8.05;1.50;;;;;;;;;;4934917;28;88984;-87
2023/01/06 12:50:51;;;;;;;;;;;;;;;;;;4936539;28;91841;-87
2023/01/06 12:53:18;;;;;;;11.88;2.67;;;;;;;;;;4951891;28;118669;-87
2023/01/06 12:56:01;;;;;;;7.80;1.52;;;;;;;;;;4942373;28;88033;-87
2023/01/06 12:58:34;;;;;;;8.70;1.52;;;;;;;;;;4937721;28;90395;-87
2023/01/06 13:01:07;;;;;;;8.95;1.95;;;;;;;;;;4938919;28;90451;-87
2023/01/06 13:03:43;;;;;;;7.63;1.42;;;;;;;;;;4937565;28;89971;-87
2023/01/06 13:06:19;;;;;;;5.40;1.38;;;;;;;;;;4937076;28;90127;-87
2023/01/06 13:08:52;;;;;;;5.35;1.80;;;;;;;;;;4939073;28;88683;-87
2023/01/06 13:11:33;;;;;;;8.25;1.70;;;;;;;;;;4937761;28;89844;-87
2023/01/06 13:14:03;;;;;;;7.05;1.40;;;;;;;;;;4937780;28;89498;-87
2023/01/06 13:16:35;;;;;;;7.90;2.15;;;;;;;;;;4940588;28;92046;-87
2023/01/06 13:19:28;;;;;;;6.28;1.65;;;;;;;;;;4939397;28;88731;-87
2023/01/06 13:21:55;;;;;;;9.65;1.77;;;;;;;;;;4934099;28;92415;-87
2023/01/06 13:24:24;;;;;;;7.97;1.50;;;;;;;;;;4937772;28;88791;-87
2023/01/06 13:27:04;;;;;;;4.13;1.05;;;;;;;;;;4936852;28;90503;-87
2023/01/06 13:29:45;;;;;;;11.83;1.90;;;;;;;;;;4937651;28;88854;-87
2023/01/06 13:32:11;;;;;;;8.38;1.45;;;;;;;;;;4937770;28;89403;-87
2023/01/06 13:34:46;;;;;;;8.90;1.40;;;;;;;;;;4938684;28;89945;-86
2023/01/06 13:37:26;;;;;;;8.05;1.33;;;;;;;;;;4937704;28;88738;-87
2023/01/06 13:39:58;;;;;;;7.45;1.80;;;;;;;;;;4940178;28;91713;-87
2023/01/06 13:42:33;;;;;;;6.68;1.30;;;;;;;;;;4938328;28;90724;-87
2023/01/06 13:44:59;;;;;;;8.18;1.20;;;;;;;;;;4937929;28;90131;-87
2023/01/06 13:47:26;;;;;;;8.35;1.73;;;;;;;;;;4937242;28;91754;-87
2023/01/06 13:49:52;;;;;;;5.03;1.25;;;;;;;;;;4934687;28;88785;-87
2023/01/06 13:52:22;;;;;;;6.25;1.60;;;;;;;;;;4933623;28;92689;-88
2023/01/06 13:54:48;;;;;;;7.93;1.65;;;;;;;;;;4938144;28;89749;-88
2023/01/06 13:57:21;;;;;;;2.72;1.05;;;;;;;;;;4937269;28;89300;-86
2023/01/06 13:59:48;;;;;;;7.47;1.85;;;;;;;;;;4939378;28;89785;-88
2023/01/06 14:02:33;;;;;;;6.47;1.60;;;;;;;;;;4940638;28;89820;-88
2023/01/06 14:05:04;;;;;;;6.20;1.40;;;;;;;;;;4952551;28;90408;-89
2023/01/06 14:07:31;;;;;;;4.78;1.50;;;;;;;;;;4953001;28;90061;-87
2023/01/06 14:09:59;;;;;;;7.93;1.55;;;;;;;;;;4938294;28;87566;-87
2023/01/06 14:12:25;;;;;;;11.35;1.77;;;;;;;;;;4941610;28;89072;-87
2023/01/06 14:15:03;;;;;;;14.43;1.88;;;;;;;;;;4938848;28;90033;-91
2023/01/06 14:17:40;;;;;;;6.88;1.35;;;;;;;;;;4934280;28;91332;-88
2023/01/06 14:20:27;;;;;;;5.82;1.17;;;;;;;;;;4939040;28;91464;-91
2023/01/06 14:22:57;;;;;;;3.13;1.00;;;;;;;;;;4933329;28;91643;-87
2023/01/06 14:25:23;;;;;;;8.32;1.35;;;;;;;;;;4943109;28;88055;-85
2023/01/06 14:27:49;;;;;;;3.63;1.00;;;;;;;;;;4938427;28;90278;-88
2023/01/06 14:30:22;;;;;;;9.18;1.40;;;;;;;;;;4941524;28;87962;-89
2023/01/06 14:32:48;;;;;;;8.20;1.65;;;;;;;;;;4937974;28;92424;-90
2023/01/06 14:35:16;;;;;;;5.15;1.13;;;;;;;;;;4936738;28;89521;-89
2023/01/06 14:37:46;;;;;;;7.10;1.23;;;;;;;;;;4937909;28;88933;-88
2023/01/06 14:40:18;;;;;;;7.93;2.15;;;;;;;;;;4934864;28;89344;-91
2023/01/06 14:42:45;;;;;;;11.50;1.95;;;;;;;;;;4952814;28;89999;-86
2023/01/06 14:45:20;;;;;;;6.53;2.05;;;;;;;;;;4938935;28;91815;-87
2023/01/06 14:47:49;;;;;;;7.95;1.95;;;;;;;;;;4942347;28;91160;-88
2023/01/06 14:50:23;;;;;;;4.70;1.60;;;;;;;;;;4939627;28;88603;-88
2023/01/06 14:52:56;;;;;;;4.95;2.00;;;;;;;;;;4940078;28;89856;-87
2023/01/06 14:55:24;;;;;;;4.97;1.50;;;;;;;;;;4938562;28;93184;-87
2023/01/06 14:57:50;;;;;;;10.05;1.83;;;;;;;;;;4937031;28;89725;-88
2023/01/06 15:00:17;;;;;;;7.00;1.48;;;;;;;;;;4939973;28;90011;-88
2023/01/06 15:02:48;;;;;;;9.93;1.77;;;;;;;;;;4935146;28;92858;-88